createdAt,value
2019-01-09T00:33:05.968Z,-7.3
2019-01-09T00:33:56.017Z,-7.3
2019-01-09T00:34:46.592Z,-7.2
2019-01-09T00:35:39.923Z,-7.2
2019-01-09T00:36:26.691Z,-7.2
2019-01-09T00:37:16.475Z,-7.2
2019-01-09T00:38:06.265Z,-7.2
2019-01-09T00:38:56.602Z,-7.1
2019-01-09T00:39:46.380Z,-7.1
2019-01-09T00:40:36.695Z,-7.1
2019-01-09T00:41:27.102Z,-7.1
2019-01-09T00:42:16.872Z,-7.1
2019-01-09T00:43:06.870Z,-7.1
2019-01-09T00:43:57.199Z,-7.1
2019-01-09T00:44:46.980Z,-7
2019-01-09T00:45:37.037Z,-7
2019-01-09T00:46:27.381Z,-7
2019-01-09T00:47:17.139Z,-7
2019-01-09T00:48:07.484Z,-6.9
2019-01-09T00:48:56.714Z,-6.9
2019-01-09T00:49:47.342Z,-6.9
2019-01-09T00:50:36.832Z,-6.9
2019-01-09T00:51:27.159Z,-6.9
2019-01-09T00:52:17.759Z,-6.9
2019-01-09T00:53:07.827Z,-6.9
2019-01-09T00:53:57.589Z,-6.8
2019-01-09T00:54:47.661Z,-6.8
2019-01-09T00:55:37.454Z,-6.8
2019-01-09T00:56:27.764Z,-6.8
2019-01-09T00:57:17.553Z,-6.8
2019-01-09T00:58:08.146Z,-6.8
2019-01-09T00:58:57.733Z,-6.8
2019-01-09T00:59:47.723Z,-6.8
2019-01-09T01:00:37.856Z,-6.8
2019-01-09T01:01:28.095Z,-6.8
2019-01-09T01:02:18.527Z,-6.7
2019-01-09T01:03:08.028Z,-6.7
2019-01-09T01:03:58.389Z,-6.7
2019-01-09T01:04:48.324Z,-6.6
2019-01-09T01:05:47.300Z,-6.6
2019-01-09T01:06:27.868Z,-6.6
2019-01-09T01:07:18.224Z,-6.6
2019-01-09T01:08:08.558Z,-6.6
2019-01-09T01:08:58.328Z,-6.6
2019-01-09T01:09:48.944Z,-6.6
2019-01-09T01:10:38.987Z,-6.6
2019-01-09T01:11:28.495Z,-6.6
2019-01-09T01:12:18.832Z,-6.6
2019-01-09T01:13:08.632Z,-6.6
2019-01-09T01:13:59.209Z,-6.6
2019-01-09T01:14:48.705Z,-6.6
2019-01-09T01:15:39.047Z,-6.5
2019-01-09T01:16:29.107Z,-6.5
2019-01-09T01:17:18.907Z,-6.5
2019-01-09T01:18:09.590Z,-6.4
2019-01-09T01:18:59.275Z,-6.5
2019-01-09T01:19:49.672Z,-6.4
2019-01-09T01:20:39.667Z,-6.4
2019-01-09T01:21:29.172Z,-6.4
2019-01-09T01:22:18.940Z,-6.4
2019-01-09T01:23:09.562Z,-6.4
2019-01-09T01:23:59.339Z,-6.4
2019-01-09T01:24:49.682Z,-6.4
2019-01-09T01:25:39.997Z,-6.4
2019-01-09T01:26:29.520Z,-6.4
2019-01-09T01:27:19.844Z,-6.4
2019-01-09T01:28:10.166Z,-6.4
2019-01-09T01:28:59.679Z,-6.3
2019-01-09T01:29:50.279Z,-6.3
2019-01-09T01:30:40.059Z,-6.3
2019-01-09T01:31:30.402Z,-6.3
2019-01-09T01:32:20.161Z,-6.3
2019-01-09T01:33:10.244Z,-6.3
2019-01-09T01:34:00.284Z,-6.3
2019-01-09T01:34:50.711Z,-6.3
2019-01-09T01:35:40.666Z,-6.3
2019-01-09T01:36:30.174Z,-6.3
2019-01-09T01:37:20.519Z,-6.2
2019-01-09T01:38:10.569Z,-6.3
2019-01-09T01:39:00.351Z,-6.2
2019-01-09T01:39:50.962Z,-6.2
2019-01-09T01:40:41.001Z,-6.2
2019-01-09T01:41:31.068Z,-6.2
2019-01-09T01:42:21.123Z,-6.2
2019-01-09T01:43:10.911Z,-6.1
2019-01-09T01:44:01.237Z,-6.1
2019-01-09T01:44:51.276Z,-6.1
2019-01-09T01:45:41.061Z,-6.1
2019-01-09T01:46:30.851Z,-6.1
2019-01-09T01:47:21.166Z,-6.1
2019-01-09T01:48:11.230Z,-6.1
2019-01-09T01:49:01.298Z,-6.1
2019-01-09T01:49:51.641Z,-6.1
2019-01-09T01:50:41.421Z,-6.1
2019-01-09T01:51:31.458Z,-6.1
2019-01-09T01:52:21.786Z,-6.1
2019-01-09T01:53:11.570Z,-6.1
2019-01-09T01:54:01.441Z,-6.1
2019-01-09T01:54:51.697Z,-6.1
2019-01-09T01:55:42.015Z,-6
2019-01-09T01:56:31.831Z,-6.1
2019-01-09T01:57:21.845Z,-6
2019-01-09T01:58:11.375Z,-6
2019-01-09T01:59:02.343Z,-6
2019-01-09T01:59:52.375Z,-6
2019-01-09T02:00:42.081Z,-6
2019-01-09T02:01:32.408Z,-6
2019-01-09T02:02:22.295Z,-6
2019-01-09T02:03:11.974Z,-6
2019-01-09T02:04:02.299Z,-6
2019-01-09T02:04:52.623Z,-5.9
2019-01-09T02:05:42.678Z,-5.9
2019-01-09T02:06:32.457Z,-5.9
2019-01-09T02:07:22.512Z,-5.9
2019-01-09T02:08:12.839Z,-5.9
2019-01-09T02:09:02.622Z,-5.9
2019-01-09T02:09:52.970Z,-5.9
2019-01-09T02:10:43.019Z,-6
2019-01-09T02:11:32.263Z,-5.9
2019-01-09T02:12:23.122Z,-5.9
2019-01-09T02:13:12.627Z,-5.9
2019-01-09T02:14:03.244Z,-5.9
2019-01-09T02:14:53.032Z,-5.9
2019-01-09T02:15:43.365Z,-5.9
2019-01-09T02:16:33.136Z,-5.9
2019-01-09T02:17:22.914Z,-5.9
2019-01-09T02:18:13.000Z,-5.9
2019-01-09T02:19:03.584Z,-5.9
2019-01-09T02:19:53.089Z,-5.9
2019-01-09T02:20:43.409Z,-5.9
2019-01-09T02:21:33.769Z,-5.9
2019-01-09T02:22:23.802Z,-5.9
2019-01-09T02:23:13.574Z,-5.9
2019-01-09T02:24:03.921Z,-5.9
2019-01-09T02:24:54.069Z,-5.9
2019-01-09T02:25:43.194Z,-5.9
2019-01-09T02:26:33.806Z,-5.9
2019-01-09T02:27:23.858Z,-5.9
2019-01-09T02:28:14.198Z,-5.9
2019-01-09T02:29:04.245Z,-5.9
2019-01-09T02:29:54.031Z,-5.9
2019-01-09T02:30:43.813Z,-5.9
2019-01-09T02:31:34.427Z,-5.9
2019-01-09T02:32:23.932Z,-5.9
2019-01-09T02:33:14.244Z,-5.9
2019-01-09T02:34:04.633Z,-5.9
2019-01-09T02:34:54.390Z,-5.9
2019-01-09T02:35:44.186Z,-5.9
2019-01-09T02:36:34.484Z,-5.9
2019-01-09T02:37:24.316Z,-5.9
2019-01-09T02:38:14.611Z,-5.9
2019-01-09T02:39:04.973Z,-5.9
2019-01-09T02:39:54.723Z,-5.9
2019-01-09T02:40:45.048Z,-5.9
2019-01-09T02:41:34.815Z,-5.9
2019-01-09T02:42:25.148Z,-5.9
2019-01-09T02:43:14.929Z,-5.9
2019-01-09T02:44:05.272Z,-5.9
2019-01-09T02:44:55.330Z,-5.9
2019-01-09T02:45:45.100Z,-5.9
2019-01-09T02:46:35.182Z,-5.9
2019-01-09T02:47:25.510Z,-5.9
2019-01-09T02:48:15.023Z,-5.9
2019-01-09T02:49:05.637Z,-5.9
2019-01-09T02:49:55.105Z,-5.9
2019-01-09T02:50:45.562Z,-5.9
2019-01-09T02:51:34.934Z,-5.9
2019-01-09T02:52:25.591Z,-5.9
2019-01-09T02:53:15.885Z,-5.9
2019-01-09T02:54:05.417Z,-5.9
2019-01-09T02:54:56.007Z,-5.9
2019-01-09T02:55:46.101Z,-5.9
2019-01-09T02:56:35.839Z,-6
2019-01-09T02:57:26.867Z,-6
2019-01-09T02:58:16.218Z,-6
2019-01-09T02:59:06.027Z,-6
2019-01-09T02:59:56.325Z,-6
2019-01-09T03:00:46.110Z,-6.1
2019-01-09T03:01:35.969Z,-6.1
2019-01-09T03:02:26.249Z,-6.1
2019-01-09T03:03:16.286Z,-6.1
2019-01-09T03:04:06.369Z,-6.1
2019-01-09T03:04:56.658Z,-6.1
2019-01-09T03:05:46.716Z,-6.1
2019-01-09T03:06:36.789Z,-6.1
2019-01-09T03:07:26.874Z,-6.1
2019-01-09T03:08:17.041Z,-6.2
2019-01-09T03:09:06.660Z,-6.1
2019-01-09T03:09:56.747Z,-6.1
2019-01-09T03:10:47.056Z,-6.1
2019-01-09T03:11:36.833Z,-6.2
2019-01-09T03:12:26.886Z,-6.2
2019-01-09T03:13:16.957Z,-6.2
2019-01-09T03:14:07.051Z,-6.2
2019-01-09T03:14:56.804Z,-6.2
2019-01-09T03:15:47.189Z,-6.2
2019-01-09T03:16:37.505Z,-6.2
2019-01-09T03:17:26.383Z,-6.3
2019-01-09T03:18:16.733Z,-6.3
2019-01-09T03:19:07.346Z,-6.2
2019-01-09T03:19:57.685Z,-6.3
2019-01-09T03:20:47.556Z,-6.3
2019-01-09T03:21:37.509Z,-6.3
2019-01-09T03:22:27.553Z,-6.3
2019-01-09T03:23:17.653Z,-6.3
2019-01-09T03:24:07.812Z,-6.3
2019-01-09T03:24:57.543Z,-6.3
2019-01-09T03:25:47.812Z,-6.3
2019-01-09T03:26:37.933Z,-6.2
2019-01-09T03:27:27.359Z,-6.3
2019-01-09T03:28:17.960Z,-6.3
2019-01-09T03:29:08.016Z,-6.3
2019-01-09T03:29:58.060Z,-6.3
2019-01-09T03:30:47.657Z,-6.3
2019-01-09T03:31:37.955Z,-6.3
2019-01-09T03:32:28.693Z,-6.3
2019-01-09T03:33:18.565Z,-6.3
2019-01-09T03:34:08.619Z,-6.3
2019-01-09T03:34:58.394Z,-6.3
2019-01-09T03:35:48.729Z,-6.3
2019-01-09T03:36:37.970Z,-6.3
2019-01-09T03:37:28.302Z,-6.3
2019-01-09T03:38:18.348Z,-6.3
2019-01-09T03:39:08.429Z,-6.3
2019-01-09T03:39:58.732Z,-6.3
2019-01-09T03:40:49.079Z,-6.3
2019-01-09T03:41:38.831Z,-6.3
2019-01-09T03:42:29.174Z,-6.3
2019-01-09T03:43:18.731Z,-6.3
2019-01-09T03:44:08.481Z,-6.3
2019-01-09T03:44:58.933Z,-6.3
2019-01-09T03:45:49.123Z,-6.3
2019-01-09T03:46:39.612Z,-6.3
2019-01-09T03:47:29.249Z,-6.3
2019-01-09T03:48:19.289Z,-6.3
2019-01-09T03:49:09.606Z,-6.3
2019-01-09T03:49:58.974Z,-6.3
2019-01-09T03:50:49.180Z,-6.3
2019-01-09T03:51:39.231Z,-6.3
2019-01-09T03:52:29.940Z,-6.3
2019-01-09T03:53:19.621Z,-6.3
2019-01-09T03:54:09.684Z,-6.3
2019-01-09T03:54:59.775Z,-6.3
2019-01-09T03:55:49.801Z,-6.2
2019-01-09T03:56:39.851Z,-6.2
2019-01-09T03:57:30.193Z,-6.2
2019-01-09T03:58:19.398Z,-6.2
2019-01-09T03:59:10.413Z,-6.3
2019-01-09T04:00:00.396Z,-6.2
2019-01-09T04:00:50.405Z,-6.2
2019-01-09T04:01:40.181Z,-6.2
2019-01-09T04:02:30.246Z,-6.2
2019-01-09T04:03:20.148Z,-6.2
2019-01-09T04:04:10.631Z,-6.2
2019-01-09T04:05:00.762Z,-6.2
2019-01-09T04:05:50.738Z,-6.2
2019-01-09T04:06:43.679Z,-6.2
2019-01-09T04:07:30.036Z,-6.2
2019-01-09T04:08:20.890Z,-6.2
2019-01-09T04:09:10.705Z,-6.1
2019-01-09T04:10:01.157Z,-6.2
2019-01-09T04:10:50.879Z,-6.2
2019-01-09T04:11:40.295Z,-6.1
2019-01-09T04:12:30.622Z,-6.1
2019-01-09T04:13:20.419Z,-6.1
2019-01-09T04:14:11.010Z,-6.1
2019-01-09T04:15:01.516Z,-6.1
2019-01-09T04:15:50.865Z,-6.1
2019-01-09T04:16:41.595Z,-6.1
2019-01-09T04:17:31.287Z,-6.1
2019-01-09T04:18:21.572Z,-6.1
2019-01-09T04:19:11.367Z,-6.1
2019-01-09T04:20:01.143Z,-6.1
2019-01-09T04:20:51.454Z,-6.1
2019-01-09T04:21:41.573Z,-6.1
2019-01-09T04:22:31.856Z,-6.1
2019-01-09T04:23:21.915Z,-6.1
2019-01-09T04:24:11.969Z,-6.1
2019-01-09T04:25:01.678Z,-6.1
2019-01-09T04:25:51.866Z,-6.1
2019-01-09T04:26:41.850Z,-6.1
2019-01-09T04:27:31.374Z,-6.1
2019-01-09T04:28:22.062Z,-6
2019-01-09T04:29:12.301Z,-6
2019-01-09T04:30:02.388Z,-6
2019-01-09T04:30:52.469Z,-6
2019-01-09T04:31:42.283Z,-6
2019-01-09T04:32:32.259Z,-6
2019-01-09T04:33:22.724Z,-6
2019-01-09T04:34:12.369Z,-6
2019-01-09T04:35:02.484Z,-6
2019-01-09T04:35:52.555Z,-5.9
2019-01-09T04:36:52.560Z,-6
2019-01-09T04:37:32.571Z,-5.9
2019-01-09T04:38:22.398Z,-5.9
2019-01-09T04:39:12.408Z,-5.9
2019-01-09T04:40:02.870Z,-5.9
2019-01-09T04:40:52.258Z,-5.9
2019-01-09T04:41:42.298Z,-5.9
2019-01-09T04:42:32.923Z,-5.9
2019-01-09T04:43:22.970Z,-5.9
2019-01-09T04:44:13.014Z,-5.9
2019-01-09T04:45:03.125Z,-5.9
2019-01-09T05:02:23.554Z,-5.8
2019-01-09T05:03:13.337Z,-5.8
2019-01-09T05:04:03.683Z,-5.8
2019-01-09T05:04:52.921Z,-5.8
2019-01-09T05:05:43.852Z,-5.8
2019-01-09T05:06:34.099Z,-5.8
2019-01-09T05:07:24.196Z,-5.8
2019-01-09T05:08:13.381Z,-5.8
2019-01-09T05:09:04.262Z,-5.8
2019-01-09T05:09:56.011Z,-5.8
2019-01-09T05:10:44.096Z,-5.8
2019-01-09T05:11:34.424Z,-5.8
2019-01-09T05:12:24.484Z,-5.8
2019-01-09T05:13:14.239Z,-5.8
2019-01-09T05:14:04.314Z,-5.8
2019-01-09T05:14:54.456Z,-5.8
2019-01-09T05:15:44.710Z,-5.8
2019-01-09T05:16:34.758Z,-5.7
2019-01-09T05:17:24.577Z,-5.8
2019-01-09T05:18:14.956Z,-5.8
2019-01-09T05:19:04.918Z,-5.8
2019-01-09T05:19:54.164Z,-5.8
2019-01-09T05:20:44.814Z,-5.8
2019-01-09T05:21:34.815Z,-5.8
2019-01-09T05:22:24.867Z,-5.7
2019-01-09T05:23:14.941Z,-5.7
2019-01-09T05:24:04.748Z,-5.7
2019-01-09T05:24:54.758Z,-5.8
2019-01-09T05:25:45.382Z,-5.7
2019-01-09T05:26:35.158Z,-5.7
2019-01-09T05:27:25.490Z,-5.7
2019-01-09T05:28:15.535Z,-5.7
2019-01-09T05:29:05.608Z,-5.7
2019-01-09T05:29:55.355Z,-5.7
2019-01-09T05:30:45.423Z,-5.7
2019-01-09T05:31:35.494Z,-5.7
2019-01-09T05:32:25.809Z,-5.7
2019-01-09T05:33:15.870Z,-5.7
2019-01-09T05:34:05.704Z,-5.7
2019-01-09T05:34:55.701Z,-5.7
2019-01-09T05:35:46.044Z,-5.7
2019-01-09T05:36:35.820Z,-5.7
2019-01-09T05:37:25.893Z,-5.7
2019-01-09T05:38:16.216Z,-5.7
2019-01-09T05:39:06.070Z,-5.7
2019-01-09T05:39:56.023Z,-5.7
2019-01-09T05:40:46.091Z,-5.7
2019-01-09T05:41:36.147Z,-5.7
2019-01-09T05:42:26.495Z,-5.7
2019-01-09T05:43:16.529Z,-5.7
2019-01-09T05:44:06.347Z,-5.7
2019-01-09T05:44:58.545Z,-5.7
2019-01-09T05:45:45.880Z,-5.7
2019-01-09T05:46:36.746Z,-5.7
2019-01-09T05:47:26.544Z,-5.7
2019-01-09T05:48:16.617Z,-5.7
2019-01-09T05:49:06.941Z,-5.8
2019-01-09T05:49:56.717Z,-5.8
2019-01-09T05:50:47.062Z,-5.8
2019-01-09T05:51:37.088Z,-5.8
2019-01-09T05:52:26.665Z,-5.8
2019-01-09T05:53:16.631Z,-5.8
2019-01-09T05:54:07.246Z,-5.8
2019-01-09T05:54:56.486Z,-5.8
2019-01-09T05:55:47.098Z,-5.9
2019-01-09T05:56:37.139Z,-5.9
2019-01-09T05:57:27.468Z,-5.9
2019-01-09T05:58:17.513Z,-5.9
2019-01-09T05:59:07.578Z,-5.9
2019-01-09T05:59:57.091Z,-5.9
2019-01-09T06:00:47.696Z,-5.9
2019-01-09T06:01:37.198Z,-6
2019-01-09T06:02:29.390Z,-6
2019-01-09T06:03:17.860Z,-6
2019-01-09T06:04:07.915Z,-6
2019-01-09T06:04:57.697Z,-6.1
2019-01-09T06:05:47.750Z,-6.1
2019-01-09T06:06:37.532Z,-6.1
2019-01-09T06:07:27.870Z,-6.1
2019-01-09T06:08:18.193Z,-6.1
2019-01-09T06:09:07.994Z,-6.2
2019-01-09T06:09:58.043Z,-6.2
2019-01-09T06:10:48.100Z,-6.2
2019-01-09T06:11:37.875Z,-6.2
2019-01-09T06:12:27.930Z,-6.2
2019-01-09T06:13:18.524Z,-6.2
2019-01-09T06:14:08.582Z,-6.2
2019-01-09T06:14:58.627Z,-6.3
2019-01-09T06:15:48.684Z,-6.3
2019-01-09T06:16:38.477Z,-6.3
2019-01-09T06:17:28.527Z,-6.3
2019-01-09T06:18:18.575Z,-6.3
2019-01-09T06:19:08.102Z,-6.3
2019-01-09T06:19:59.057Z,-6.3
2019-01-09T06:20:48.750Z,-6.3
2019-01-09T06:21:38.814Z,-6.3
2019-01-09T06:22:29.132Z,-6.3
2019-01-09T06:23:18.907Z,-6.3
2019-01-09T06:24:08.959Z,-6.3
2019-01-09T06:24:59.039Z,-6.3
2019-01-09T06:25:49.407Z,-6.3
2019-01-09T06:26:39.239Z,-6.3
2019-01-09T06:27:29.484Z,-6.3
2019-01-09T06:28:19.612Z,-6.3
2019-01-09T06:29:09.576Z,-6.3
2019-01-09T06:29:59.357Z,-6.3
2019-01-09T06:30:49.675Z,-6.3
2019-01-09T06:31:39.754Z,-6.2
2019-01-09T06:32:29.781Z,-6.2
2019-01-09T06:33:19.959Z,-6.1
2019-01-09T06:34:09.670Z,-6.1
2019-01-09T06:34:59.980Z,-6
2019-01-09T06:35:49.615Z,-5.9
2019-01-09T06:36:39.823Z,-5.9
2019-01-09T06:37:30.368Z,-5.8
2019-01-09T06:38:19.923Z,-5.8
2019-01-09T06:39:09.958Z,-5.7
2019-01-09T06:40:00.280Z,-5.6
2019-01-09T06:40:50.213Z,-5.6
2019-01-09T06:41:40.130Z,-5.4
2019-01-09T06:42:29.913Z,-5.3
2019-01-09T06:43:20.523Z,-5
2019-01-09T06:44:10.642Z,-4.8
2019-01-09T06:45:00.095Z,-4.4
2019-01-09T06:45:50.423Z,-4.1
2019-01-09T06:47:30.518Z,-3.3
2019-01-09T06:48:20.675Z,-2.8
2019-01-09T06:49:10.615Z,-2.3
2019-01-09T06:50:00.405Z,-1.8
2019-01-09T06:50:51.109Z,-1.1
2019-01-09T06:51:40.855Z,-0.6
2019-01-09T06:52:31.113Z,0
2019-01-09T06:53:21.229Z,0.6
2019-01-09T06:54:10.941Z,1.1
2019-01-09T06:55:01.718Z,1.7
2019-01-09T06:55:51.515Z,2.3
2019-01-09T06:56:41.126Z,2.9
2019-01-09T06:57:30.911Z,3.4
2019-01-09T06:58:22.196Z,3.9
2019-01-09T06:59:11.004Z,4.4
2019-01-09T07:00:01.369Z,4.9
2019-01-09T07:00:51.110Z,5.4
2019-01-09T07:01:41.463Z,5.9
2019-01-09T07:02:31.231Z,6.4
2019-01-09T07:03:21.917Z,6.9
2019-01-09T07:04:11.433Z,7.4
2019-01-09T07:05:01.670Z,7.9
2019-01-09T07:05:51.310Z,8.4
2019-01-09T07:06:42.062Z,8.9
2019-01-09T07:07:38.227Z,9.5
2019-01-09T07:08:21.625Z,10.2
2019-01-09T07:09:12.237Z,10.8
2019-01-09T07:10:03.551Z,11.5
2019-01-09T07:10:52.347Z,12.2
2019-01-09T07:11:41.840Z,12.9
2019-01-09T07:12:32.188Z,13.6
2019-01-09T07:13:22.237Z,14.4
2019-01-09T07:14:12.279Z,15.2
2019-01-09T07:15:13.764Z,15.9
2019-01-09T07:15:52.124Z,16.8
2019-01-09T07:16:42.559Z,17.2
2019-01-09T07:17:32.777Z,17.8
2019-01-09T07:18:22.847Z,18.3
2019-01-09T07:19:12.900Z,18.8
2019-01-09T07:20:03.062Z,19.1
2019-01-09T07:20:52.721Z,19.3
2019-01-09T07:21:47.767Z,19.6
2019-01-09T07:22:32.864Z,19.7
2019-01-09T07:23:22.894Z,19.8
2019-01-09T07:24:12.764Z,20.1
2019-01-09T07:25:03.319Z,20.2
2019-01-09T07:25:53.350Z,20.3
2019-01-09T07:26:43.414Z,20.3
2019-01-09T07:27:33.196Z,20.4
2019-01-09T07:28:23.238Z,20.6
2019-01-09T07:29:13.285Z,20.9
2019-01-09T07:30:03.669Z,21.3
2019-01-09T07:30:53.678Z,21.6
2019-01-09T07:31:43.450Z,22
2019-01-09T07:32:33.234Z,22.4
2019-01-09T07:33:23.581Z,22.8
2019-01-09T07:34:13.358Z,23.2
2019-01-09T07:35:03.792Z,23.6
2019-01-09T07:35:53.733Z,24
2019-01-09T07:36:43.886Z,24.4
2019-01-09T07:37:33.893Z,25
2019-01-09T07:38:24.186Z,25.6
2019-01-09T07:39:14.228Z,26.1
2019-01-09T07:40:04.031Z,26.7
2019-01-09T07:40:54.080Z,27.3
2019-01-09T07:41:44.388Z,27.8
2019-01-09T07:42:34.460Z,28.2
2019-01-09T07:43:24.246Z,28.4
2019-01-09T07:44:14.318Z,28.6
2019-01-09T07:45:04.640Z,28.5
2019-01-09T07:45:54.696Z,28.4
2019-01-09T07:46:44.461Z,28.2
2019-01-09T07:47:34.801Z,28.1
2019-01-09T07:48:24.591Z,27.9
2019-01-09T07:49:14.646Z,27.8
2019-01-09T07:50:04.974Z,27.4
2019-01-09T07:50:55.023Z,27.2
2019-01-09T07:51:44.538Z,26.9
2019-01-09T07:52:35.132Z,26.7
2019-01-09T07:53:24.175Z,26.4
2019-01-09T07:54:14.975Z,26.3
2019-01-09T07:55:05.052Z,25.9
2019-01-09T07:55:54.804Z,25.6
2019-01-09T07:56:44.587Z,25.4
2019-01-09T07:57:34.398Z,25.1
2019-01-09T07:58:25.262Z,24.9
2019-01-09T07:59:15.838Z,24.6
2019-01-09T08:00:05.644Z,24.4
2019-01-09T08:00:54.869Z,24.1
2019-01-09T08:01:45.479Z,23.8
2019-01-09T08:02:35.625Z,23.6
2019-01-09T08:03:25.582Z,23.3
2019-01-09T08:04:15.367Z,23
2019-01-09T08:05:05.714Z,22.8
2019-01-09T08:05:55.762Z,22.6
2019-01-09T08:06:46.092Z,22.3
2019-01-09T08:07:35.869Z,21.9
2019-01-09T08:08:25.929Z,21.8
2019-01-09T08:09:16.021Z,21.5
2019-01-09T08:10:05.498Z,21.2
2019-01-09T08:10:56.386Z,20.9
2019-01-09T08:11:48.568Z,20.8
2019-01-09T08:12:36.194Z,20.4
2019-01-09T08:13:25.981Z,20.3
2019-01-09T08:14:16.592Z,20.1
2019-01-09T08:15:06.653Z,19.9
2019-01-09T08:15:56.695Z,19.6
2019-01-09T08:16:46.748Z,19.4
2019-01-09T08:17:36.273Z,19.3
2019-01-09T08:18:26.656Z,19.1
2019-01-09T08:19:16.926Z,18.9
2019-01-09T08:20:06.428Z,18.8
2019-01-09T08:21:06.386Z,18.6
2019-01-09T08:21:46.818Z,18.4
2019-01-09T08:22:37.138Z,18.4
2019-01-09T08:23:26.941Z,18.5
2019-01-09T08:24:17.150Z,18.6
2019-01-09T08:25:57.368Z,18.8
2019-01-09T08:26:47.423Z,18.9
2019-01-09T08:27:37.501Z,19.1
2019-01-09T08:28:27.268Z,19.3
2019-01-09T08:29:17.321Z,19.4
2019-01-09T08:30:07.388Z,19.5
2019-01-09T08:30:57.718Z,19.6
2019-01-09T08:31:47.487Z,19.7
2019-01-09T08:32:37.830Z,19.9
2019-01-09T08:33:27.350Z,20
2019-01-09T08:34:17.946Z,20.1
2019-01-09T08:35:07.719Z,20
2019-01-09T08:35:58.030Z,20
2019-01-09T08:36:48.090Z,19.9
2019-01-09T08:37:37.867Z,19.9
2019-01-09T08:38:27.939Z,19.8
2019-01-09T08:39:18.281Z,19.8
2019-01-09T08:40:08.055Z,19.8
2019-01-09T08:40:58.160Z,19.6
2019-01-09T08:41:48.432Z,19.6
2019-01-09T08:42:38.218Z,19.4
2019-01-09T08:43:28.324Z,19.4
2019-01-09T08:44:18.037Z,19.4
2019-01-09T08:45:08.675Z,19.2
2019-01-09T08:45:58.169Z,18.9
2019-01-09T08:46:48.783Z,18.8
2019-01-09T08:47:38.580Z,18.6
2019-01-09T08:48:28.607Z,18.4
2019-01-09T08:49:18.404Z,18.3
2019-01-09T08:50:09.004Z,18.2
2019-01-09T08:50:59.037Z,18.1
2019-01-09T08:51:48.834Z,17.9
2019-01-09T08:52:39.278Z,17.8
2019-01-09T08:53:28.954Z,17.7
2019-01-09T08:54:19.341Z,17.7
2019-01-09T08:55:09.345Z,17.6
2019-01-09T08:55:59.387Z,17.6
2019-01-09T08:56:49.149Z,17.4
2019-01-09T08:57:39.224Z,17.3
2019-01-09T08:58:29.621Z,17.2
2019-01-09T08:59:19.061Z,17.1
2019-01-09T09:00:09.671Z,16.9
2019-01-09T09:00:59.463Z,16.9
2019-01-09T09:16:55.773Z,15.1
2019-01-09T09:17:45.737Z,14.9
2019-01-09T09:18:35.861Z,14.8
2019-01-09T09:19:26.207Z,14.7
2019-01-09T09:20:16.022Z,14.6
2019-01-09T09:21:06.024Z,14.4
2019-01-09T09:21:56.357Z,14.3
2019-01-09T09:22:45.839Z,14.3
2019-01-09T09:23:36.447Z,14.1
2019-01-09T09:24:26.321Z,13.9
2019-01-09T09:25:16.007Z,13.8
2019-01-09T09:26:06.614Z,13.6
2019-01-09T09:26:56.404Z,13.5
2019-01-09T09:27:45.902Z,13.3
2019-01-09T09:28:36.517Z,13.3
2019-01-09T09:29:26.839Z,13.1
2019-01-09T09:30:16.627Z,13.1
2019-01-09T09:31:06.727Z,13
2019-01-09T09:31:57.012Z,12.9
2019-01-09T09:32:46.594Z,12.9
2019-01-09T09:33:35.849Z,12.8
2019-01-09T09:34:26.416Z,12.8
2019-01-09T09:35:17.243Z,12.7
2019-01-09T09:36:06.739Z,12.6
2019-01-09T09:36:57.341Z,12.5
2019-01-09T09:37:47.146Z,12.4
2019-01-09T09:38:37.241Z,12.4
2019-01-09T09:39:27.541Z,12.3
2019-01-09T09:40:17.278Z,12.2
2019-01-09T09:41:07.616Z,12.1
2019-01-09T09:41:56.848Z,11.9
2019-01-09T09:42:47.196Z,11.9
2019-01-09T09:43:37.536Z,11.9
2019-01-09T09:44:27.861Z,11.7
2019-01-09T09:45:17.633Z,11.6
2019-01-09T09:46:07.994Z,11.5
2019-01-09T09:46:58.081Z,11.4
2019-01-09T09:47:47.810Z,11.3
2019-01-09T09:48:37.566Z,11.2
2019-01-09T09:49:28.191Z,11.2
2019-01-09T09:50:18.261Z,11.1
2019-01-09T09:51:07.804Z,11
2019-01-09T09:51:58.093Z,10.9
2019-01-09T09:52:47.875Z,10.9
2019-01-09T09:53:37.910Z,10.9
2019-01-09T09:54:28.533Z,10.9
2019-01-09T09:55:18.309Z,10.8
2019-01-09T09:56:08.085Z,10.8
2019-01-09T09:56:58.410Z,10.8
2019-01-09T09:57:48.470Z,10.8
2019-01-09T09:58:38.520Z,10.7
2019-01-09T09:59:28.857Z,10.8
2019-01-09T10:00:18.360Z,10.7
2019-01-09T10:01:08.685Z,10.7
2019-01-09T10:01:58.737Z,10.7
2019-01-09T10:02:48.587Z,10.7
2019-01-09T10:03:39.140Z,10.6
2019-01-09T10:04:28.905Z,10.6
2019-01-09T10:05:19.000Z,10.7
2019-01-09T10:06:08.744Z,10.8
2019-01-09T10:06:59.072Z,10.9
2019-01-09T10:07:48.848Z,10.9
2019-01-09T10:08:39.462Z,10.9
2019-01-09T10:09:29.526Z,11
2019-01-09T10:10:19.300Z,11.1
2019-01-09T10:11:09.195Z,11.1
2019-01-09T10:11:59.688Z,11.1
2019-01-09T10:12:48.929Z,11.2
2019-01-09T10:13:39.510Z,11.3
2019-01-09T10:14:29.023Z,11.3
2019-01-09T10:15:19.902Z,11.4
2019-01-09T10:16:09.690Z,11.5
2019-01-09T10:16:59.459Z,11.6
2019-01-09T10:17:50.076Z,11.6
2019-01-09T10:18:39.576Z,11.7
2019-01-09T10:19:29.904Z,11.7
2019-01-09T10:20:19.692Z,11.7
2019-01-09T10:21:10.032Z,11.8
2019-01-09T10:22:00.351Z,11.8
2019-01-09T10:22:50.418Z,11.8
2019-01-09T10:23:40.183Z,11.8
2019-01-09T10:24:30.509Z,11.8
2019-01-09T10:25:20.298Z,11.9
2019-01-09T10:26:09.793Z,11.9
2019-01-09T10:27:00.516Z,11.9
2019-01-09T10:27:50.766Z,11.9
2019-01-09T10:28:40.796Z,11.9
2019-01-09T10:29:30.565Z,11.9
2019-01-09T10:30:20.360Z,11.9
2019-01-09T10:31:10.411Z,11.9
2019-01-09T10:32:01.458Z,11.9
2019-01-09T10:32:51.115Z,11.9
2019-01-09T10:33:40.868Z,11.9
2019-01-09T10:34:31.188Z,11.9
2019-01-09T10:35:21.341Z,11.9
2019-01-09T10:36:11.082Z,11.9
2019-01-09T10:37:00.802Z,11.9
2019-01-09T10:37:51.422Z,12
2019-01-09T10:38:41.198Z,11.9
2019-01-09T10:39:31.517Z,11.9
2019-01-09T10:40:21.580Z,11.9
2019-01-09T10:41:11.644Z,11.9
2019-01-09T10:42:01.124Z,11.9
2019-01-09T10:42:50.923Z,11.9
2019-01-09T10:43:41.510Z,11.9
2019-01-09T10:44:31.845Z,11.9
2019-01-09T10:45:21.925Z,11.9
2019-01-09T10:46:12.017Z,11.9
2019-01-09T10:47:01.748Z,11.9
2019-01-09T10:47:52.148Z,11.9
2019-01-09T10:48:41.862Z,11.9
2019-01-09T10:49:32.186Z,11.9
2019-01-09T10:50:22.257Z,11.9
2019-01-09T10:51:11.844Z,11.9
2019-01-09T10:52:02.180Z,11.8
2019-01-09T10:52:52.409Z,11.8
2019-01-09T10:53:42.189Z,11.8
2019-01-09T10:54:32.251Z,11.7
2019-01-09T10:55:22.589Z,11.7
2019-01-09T10:56:12.619Z,11.6
2019-01-09T10:57:02.417Z,11.6
2019-01-09T10:57:52.201Z,11.6
2019-01-09T10:58:42.519Z,11.6
2019-01-09T10:59:32.291Z,11.6
2019-01-09T11:00:22.636Z,11.5
2019-01-09T11:01:12.399Z,11.4
2019-01-09T11:02:03.034Z,11.3
2019-01-09T11:02:52.809Z,11.3
2019-01-09T11:03:43.138Z,11.3
2019-01-09T11:04:32.996Z,11.3
2019-01-09T11:05:23.249Z,11.2
2019-01-09T11:06:15.505Z,11.2
2019-01-09T11:07:03.085Z,11.1
2019-01-09T11:07:53.230Z,11.1
2019-01-09T11:08:49.471Z,11
2019-01-09T11:09:33.246Z,10.9
2019-01-09T11:10:23.303Z,10.9
2019-01-09T11:11:13.618Z,10.9
2019-01-09T11:12:03.409Z,10.8
2019-01-09T11:12:53.738Z,10.8
2019-01-09T11:13:43.795Z,10.7
2019-01-09T11:14:33.578Z,10.6
2019-01-09T11:15:23.930Z,10.5
2019-01-09T11:16:13.425Z,10.4
2019-01-09T11:17:04.015Z,10.3
2019-01-09T11:17:53.530Z,10.1
2019-01-09T11:18:43.610Z,10.1
2019-01-09T11:19:33.916Z,10
2019-01-09T11:20:23.691Z,9.9
2019-01-09T11:21:14.297Z,9.9
2019-01-09T11:22:04.378Z,9.8
2019-01-09T11:22:54.413Z,9.8
2019-01-09T11:23:43.902Z,9.7
2019-01-09T11:24:34.242Z,9.6
2019-01-09T11:25:24.575Z,9.6
2019-01-09T11:26:16.395Z,9.5
2019-01-09T11:27:04.860Z,9.4
2019-01-09T11:27:54.200Z,9.4
2019-01-09T11:28:44.899Z,9.3
2019-01-09T11:29:34.859Z,9.2
2019-01-09T11:30:24.945Z,9.1
2019-01-09T11:31:14.959Z,9
2019-01-09T11:32:05.039Z,8.9
2019-01-09T11:32:54.347Z,8.9
2019-01-09T11:33:44.312Z,8.8
2019-01-09T11:34:35.179Z,8.8
2019-01-09T11:35:25.256Z,8.7
2019-01-09T11:36:15.285Z,8.6
2019-01-09T11:37:05.349Z,8.6
2019-01-09T11:37:55.364Z,8.5
2019-01-09T11:38:44.911Z,8.4
2019-01-09T11:39:35.249Z,8.3
2019-01-09T11:40:25.312Z,8.3
2019-01-09T11:41:15.094Z,8.2
2019-01-09T11:42:05.692Z,8.1
2019-01-09T11:42:55.474Z,8.1
2019-01-09T11:43:45.798Z,8
2019-01-09T11:44:35.608Z,7.9
2019-01-09T11:45:25.369Z,7.9
2019-01-09T11:46:15.409Z,7.8
2019-01-09T11:47:06.019Z,7.8
2019-01-09T11:47:55.699Z,7.7
2019-01-09T11:48:45.862Z,7.7
2019-01-09T11:49:35.968Z,7.6
2019-01-09T11:50:26.235Z,7.5
2019-01-09T11:51:16.336Z,7.4
2019-01-09T11:52:06.079Z,7.4
2019-01-09T11:52:56.406Z,7.4
2019-01-09T11:53:46.450Z,7.3
2019-01-09T11:54:36.246Z,7.2
2019-01-09T11:55:26.681Z,7.1
2019-01-09T11:56:16.629Z,7.1
2019-01-09T11:57:06.148Z,7
2019-01-09T11:57:56.464Z,6.9
2019-01-09T11:58:46.513Z,6.9
2019-01-09T11:59:36.655Z,6.8
2019-01-09T12:00:26.635Z,6.8
2019-01-09T12:01:16.690Z,6.7
2019-01-09T12:02:07.019Z,6.6
2019-01-09T12:02:56.818Z,6.6
2019-01-09T12:03:47.125Z,6.5
2019-01-09T12:04:36.797Z,6.4
2019-01-09T12:05:26.957Z,6.4
2019-01-09T12:06:17.129Z,6.4
2019-01-09T12:07:07.075Z,6.3
2019-01-09T12:07:57.397Z,6.2
2019-01-09T12:08:49.314Z,6.2
2019-01-09T12:09:36.957Z,6.1
2019-01-09T12:10:32.434Z,6.1
2019-01-09T12:11:17.357Z,6
2019-01-09T12:12:07.712Z,5.9
2019-01-09T12:12:57.459Z,5.9
2019-01-09T12:13:47.527Z,5.9
2019-01-09T12:14:37.576Z,5.8
2019-01-09T12:15:27.909Z,5.8
2019-01-09T12:16:17.694Z,5.7
2019-01-09T12:17:08.026Z,5.6
2019-01-09T12:17:57.797Z,5.6